createdAt,value
2022-09-28T00:01:27.561Z,0.68
2022-09-28T00:04:00.720Z,0.70
2022-09-28T00:06:33.446Z,1.00
2022-09-28T00:11:48.439Z,0.60
2022-09-28T00:14:22.987Z,0.47
2022-09-28T00:19:42.588Z,0.40
2022-09-28T00:22:24.052Z,0.87
2022-09-28T00:24:53.146Z,1.27
2022-09-28T00:27:32.038Z,0.83
2022-09-28T00:30:09.205Z,0.87
2022-09-28T00:32:41.373Z,1.03
2022-09-28T00:35:19.168Z,0.70
2022-09-28T00:37:50.968Z,1.20
2022-09-28T00:40:25.169Z,1.20
2022-09-28T00:43:01.655Z,0.70
2022-09-28T00:45:34.552Z,0.77
2022-09-28T00:48:16.954Z,0.60
2022-09-28T00:50:47.671Z,0.93
2022-09-28T00:53:33.457Z,0.80
2022-09-28T00:56:16.810Z,1.10
2022-09-28T00:58:55.011Z,1.10
2022-09-28T01:01:28.545Z,0.87
2022-09-28T01:03:59.100Z,1.10
2022-09-28T01:06:36.795Z,1.27
2022-09-28T01:09:18.083Z,1.10
2022-09-28T01:11:49.672Z,1.10
2022-09-28T01:14:23.034Z,0.68
2022-09-28T01:17:19.464Z,0.93
2022-09-28T01:20:15.963Z,1.27
2022-09-28T01:23:17.899Z,0.47
2022-09-28T01:28:35.781Z,0.83
2022-09-28T01:31:26.709Z,0.87
2022-09-28T01:34:17.690Z,0.53
2022-09-28T01:36:58.098Z,1.00
2022-09-28T01:39:49.860Z,1.13
2022-09-28T01:42:31.344Z,1.10
2022-09-28T01:45:10.211Z,0.60
2022-09-28T01:47:41.400Z,0.77
2022-09-28T01:50:16.474Z,1.10
2022-09-28T01:53:12.324Z,1.10
2022-09-28T01:55:51.681Z,0.63
2022-09-28T01:58:48.482Z,0.50
2022-09-28T02:01:55.788Z,0.63
2022-09-28T02:04:52.785Z,0.77
2022-09-28T02:07:30.684Z,0.73
2022-09-28T02:10:07.112Z,0.87
2022-09-28T02:13:02.504Z,1.07
2022-09-28T02:15:46.050Z,0.70
2022-09-28T02:18:24.446Z,0.70
2022-09-28T02:21:14.612Z,1.13
2022-09-28T02:23:59.356Z,0.70
2022-09-28T02:26:35.457Z,0.90
2022-09-28T02:29:05.484Z,1.20
2022-09-28T02:31:37.913Z,1.27
2022-09-28T02:34:10.466Z,0.50
2022-09-28T02:36:47.196Z,0.57
2022-09-28T02:39:25.092Z,0.70
2022-09-28T02:42:51.039Z,0.63
2022-09-28T02:45:52.051Z,0.77
2022-09-28T02:49:35.132Z,0.60
2022-09-28T02:52:37.172Z,0.73
2022-09-28T02:59:03.977Z,0.30
2022-09-28T03:01:44.771Z,0.60
2022-09-28T03:04:54.671Z,0.63
2022-09-28T03:08:31.120Z,0.60
2022-09-28T03:11:09.737Z,0.52
2022-09-28T03:13:44.935Z,0.43
2022-09-28T03:16:25.240Z,0.80
2022-09-28T03:19:06.798Z,0.20
2022-09-28T03:21:40.323Z,0.80
2022-09-28T03:24:24.679Z,0.40
2022-09-28T03:26:55.415Z,0.23
2022-09-28T03:29:24.333Z,0.40
2022-09-28T03:32:05.093Z,0.60
2022-09-28T03:34:37.036Z,0.40
2022-09-28T03:37:07.766Z,0.80
2022-09-28T03:39:40.105Z,0.83
2022-09-28T03:42:11.599Z,0.50
2022-09-28T03:44:48.370Z,0.63
2022-09-28T03:47:19.521Z,0.63
2022-09-28T03:49:55.661Z,0.83
2022-09-28T03:52:25.312Z,0.57
2022-09-28T03:54:56.272Z,0.37
2022-09-28T03:57:25.312Z,0.70
2022-09-28T03:59:56.411Z,0.93
2022-09-28T04:02:26.912Z,0.50
2022-09-28T04:05:18.211Z,0.60
2022-09-28T04:08:05.513Z,0.23
2022-09-28T04:10:46.750Z,0.13
2022-09-28T04:13:20.452Z,0.30
2022-09-28T04:16:00.848Z,0.43
2022-09-28T04:18:41.596Z,0.50
2022-09-28T04:21:38.017Z,0.30
2022-09-28T04:24:19.030Z,0.43
2022-09-28T04:26:49.514Z,0.30
2022-09-28T04:29:23.980Z,0.60
2022-09-28T04:32:04.325Z,0.45
2022-09-28T04:34:48.002Z,0.77
2022-09-28T04:37:34.623Z,0.50
2022-09-28T04:40:16.804Z,0.43
2022-09-28T04:43:00.552Z,0.77
2022-09-28T04:45:35.853Z,0.73
2022-09-28T04:48:14.070Z,0.73
2022-09-28T04:51:17.802Z,0.63
2022-09-28T04:53:52.722Z,0.67
2022-09-28T04:56:26.740Z,0.40
2022-09-28T04:58:58.282Z,0.40
2022-09-28T05:01:33.960Z,0.63
2022-09-28T05:04:29.697Z,0.50
2022-09-28T05:07:25.085Z,0.88
2022-09-28T05:09:55.303Z,0.83
2022-09-28T05:12:35.095Z,0.60
2022-09-28T05:15:21.911Z,1.03
2022-09-28T05:17:57.129Z,0.63
2022-09-28T05:20:53.011Z,0.63
2022-09-28T05:23:25.282Z,0.70
2022-09-28T05:26:03.926Z,0.50
2022-09-28T05:28:36.823Z,1.37
2022-09-28T05:31:40.620Z,0.90
2022-09-28T05:34:43.339Z,2.47
2022-09-28T05:37:19.572Z,1.10
2022-09-28T05:39:58.970Z,0.77
2022-09-28T05:42:27.975Z,0.70
2022-09-28T05:45:09.469Z,0.98
2022-09-28T05:47:48.621Z,1.33
2022-09-28T05:50:25.610Z,1.17
2022-09-28T05:53:16.303Z,1.03
2022-09-28T05:55:48.739Z,0.67
2022-09-28T05:58:23.606Z,0.37
2022-09-28T06:01:02.394Z,0.93
2022-09-28T06:03:36.304Z,0.80
2022-09-28T06:06:13.719Z,0.60
2022-09-28T06:09:00.202Z,0.60
2022-09-28T06:11:48.692Z,0.87
2022-09-28T06:14:42.628Z,0.77
2022-09-28T06:17:12.889Z,1.05
2022-09-28T06:20:01.168Z,0.33
2022-09-28T06:22:52.215Z,0.87
2022-09-28T06:25:23.570Z,0.90
2022-09-28T06:28:11.997Z,0.63
2022-09-28T06:30:45.327Z,0.70
2022-09-28T06:33:23.385Z,0.93
2022-09-28T06:36:06.372Z,0.60
2022-09-28T06:38:38.340Z,0.83
2022-09-28T06:41:09.252Z,1.15
2022-09-28T06:43:42.689Z,0.50
2022-09-28T06:46:15.950Z,0.80
2022-09-28T06:49:04.203Z,0.63
2022-09-28T06:52:26.212Z,1.20
2022-09-28T06:55:37.138Z,0.80
2022-09-28T06:58:10.870Z,1.20
2022-09-28T07:00:43.864Z,1.87
2022-09-28T07:03:31.703Z,1.40
2022-09-28T07:06:24.766Z,1.20
2022-09-28T07:09:32.155Z,1.40
2022-09-28T07:12:07.887Z,1.90
2022-09-28T07:14:57.691Z,1.98
2022-09-28T07:17:56.485Z,1.37
2022-09-28T07:20:46.251Z,1.10
2022-09-28T07:23:49.378Z,0.77
2022-09-28T07:26:33.965Z,1.17
2022-09-28T07:29:30.484Z,1.60
2022-09-28T07:32:28.339Z,1.08
2022-09-28T07:35:20.979Z,1.00
2022-09-28T07:38:08.116Z,1.47
2022-09-28T07:40:55.492Z,1.17
2022-09-28T07:46:23.160Z,0.97
2022-09-28T07:49:11.604Z,1.13
2022-09-28T07:52:05.164Z,1.20
2022-09-28T07:54:43.100Z,1.40
2022-09-28T07:57:33.249Z,1.60
2022-09-28T08:00:33.980Z,1.80
2022-09-28T08:03:07.385Z,1.77
2022-09-28T08:05:45.681Z,1.43
2022-09-28T08:08:14.484Z,0.90
2022-09-28T08:10:53.302Z,1.33
2022-09-28T08:13:50.582Z,1.13
2022-09-28T08:16:51.984Z,0.87
2022-09-28T08:20:05.276Z,1.53
2022-09-28T08:22:35.635Z,1.05
2022-09-28T08:25:10.961Z,0.90
2022-09-28T08:27:39.090Z,1.60
2022-09-28T08:30:08.978Z,1.20
2022-09-28T08:33:15.411Z,1.87
2022-09-28T08:35:51.166Z,1.60
2022-09-28T08:38:25.433Z,1.17
2022-09-28T08:41:27.210Z,0.80
2022-09-28T08:44:26.966Z,0.80
2022-09-28T08:47:46.679Z,0.70
2022-09-28T08:50:38.106Z,1.13
2022-09-28T08:53:55.002Z,0.87
2022-09-28T08:56:55.820Z,1.33
2022-09-28T08:59:36.304Z,1.07
2022-09-28T09:02:19.494Z,0.70
2022-09-28T09:05:15.010Z,1.07
2022-09-28T09:08:20.940Z,0.87
2022-09-28T09:11:07.825Z,1.07
2022-09-28T09:14:22.719Z,1.17
2022-09-28T09:17:43.019Z,0.77
2022-09-28T09:20:43.099Z,0.60
2022-09-28T09:23:40.698Z,0.85
2022-09-28T09:26:26.330Z,0.68
2022-09-28T09:29:47.599Z,1.20
2022-09-28T09:32:50.624Z,1.20
2022-09-28T09:35:59.403Z,0.90
2022-09-28T09:39:03.731Z,0.90
2022-09-28T09:41:52.563Z,1.10
2022-09-28T09:48:38.433Z,2.27
2022-09-28T09:52:00.087Z,1.73
2022-09-28T09:55:06.470Z,1.50
2022-09-28T09:58:06.154Z,1.00
2022-09-28T10:00:50.960Z,1.63
2022-09-28T10:03:46.007Z,1.37
2022-09-28T10:06:44.283Z,1.80
2022-09-28T10:09:29.290Z,1.47
2022-09-28T10:12:12.691Z,1.57
2022-09-28T10:14:43.915Z,1.80
2022-09-28T10:17:17.208Z,1.35
2022-09-28T10:20:05.420Z,2.15
2022-09-28T10:23:30.943Z,1.20
2022-09-28T10:26:07.040Z,1.67
2022-09-28T10:28:44.130Z,1.17
2022-09-28T10:31:58.353Z,0.73
2022-09-28T10:34:51.129Z,0.90
2022-09-28T10:38:05.647Z,1.43
2022-09-28T10:41:31.963Z,1.30
2022-09-28T10:44:20.229Z,1.40
2022-09-28T10:47:49.585Z,1.40
2022-09-28T10:50:28.391Z,1.33
2022-09-28T10:53:21.933Z,1.33
2022-09-28T10:56:08.850Z,0.90
2022-09-28T10:58:49.739Z,1.03
2022-09-28T11:01:36.786Z,0.93
2022-09-28T11:04:10.852Z,0.80
2022-09-28T11:06:44.410Z,0.73
2022-09-28T11:09:44.600Z,0.90
2022-09-28T11:12:21.971Z,0.50
2022-09-28T11:15:02.309Z,0.50
2022-09-28T11:17:42.077Z,0.33
2022-09-28T11:20:36.791Z,0.40
2022-09-28T11:23:33.820Z,0.63
2022-09-28T11:26:34.415Z,0.60
2022-09-28T11:29:04.613Z,1.00
2022-09-28T11:31:49.180Z,0.50
2022-09-28T11:34:59.661Z,0.50
2022-09-28T11:38:10.969Z,0.80
2022-09-28T11:41:02.963Z,0.40
2022-09-28T11:44:20.087Z,0.50
2022-09-28T11:47:39.324Z,0.43
2022-09-28T11:50:58.165Z,0.50
2022-09-28T11:54:04.071Z,0.60
2022-09-28T11:56:52.016Z,0.57
2022-09-28T11:59:32.175Z,0.70
2022-09-28T12:02:22.327Z,0.50
2022-09-28T12:05:20.752Z,0.80
2022-09-28T12:08:26.449Z,0.70
2022-09-28T12:11:24.549Z,0.40
2022-09-28T12:14:25.675Z,1.07
2022-09-28T12:17:16.591Z,1.00
2022-09-28T12:20:21.685Z,1.27
2022-09-28T12:23:39.856Z,1.27
2022-09-28T12:26:31.043Z,1.37
2022-09-28T12:29:15.007Z,1.63
2022-09-28T12:32:03.689Z,1.73
2022-09-28T12:34:35.638Z,1.60
2022-09-28T12:37:51.511Z,1.37
2022-09-28T12:40:41.716Z,1.00
2022-09-28T12:43:29.557Z,1.27
2022-09-28T12:46:28.181Z,1.40
2022-09-28T12:50:33.326Z,1.53
2022-09-28T12:52:30.576Z,1.23
2022-09-28T12:55:41.256Z,1.33
2022-09-28T12:58:48.569Z,1.27
2022-09-28T13:01:40.362Z,1.23
2022-09-28T13:07:33.991Z,1.27
2022-09-28T13:10:44.582Z,1.37
2022-09-28T13:14:07.704Z,1.20
2022-09-28T13:17:05.249Z,0.83
2022-09-28T13:20:19.670Z,1.00
2022-09-28T13:23:41.323Z,1.13
2022-09-28T13:26:41.821Z,0.70
2022-09-28T13:29:18.986Z,1.00
2022-09-28T13:32:03.185Z,0.90
2022-09-28T13:34:41.391Z,1.40
2022-09-28T13:37:17.864Z,1.00
2022-09-28T13:40:01.946Z,1.00
2022-09-28T13:42:51.702Z,0.90
2022-09-28T13:46:03.353Z,0.93
2022-09-28T13:49:04.201Z,0.95
2022-09-28T13:51:52.656Z,0.77
2022-09-28T13:55:07.924Z,1.10
2022-09-28T13:58:02.318Z,1.10
2022-09-28T14:00:51.921Z,1.10
2022-09-28T14:04:04.002Z,1.37
2022-09-28T14:06:37.122Z,1.07
2022-09-28T14:09:42.849Z,1.10
2022-09-28T14:12:45.325Z,0.77
2022-09-28T14:15:51.587Z,0.90
2022-09-28T14:18:40.041Z,2.27
2022-09-28T14:21:54.617Z,0.73
2022-09-28T14:24:44.197Z,1.03
2022-09-28T14:27:50.543Z,0.87
2022-09-28T14:30:45.595Z,0.80
2022-09-28T14:33:34.911Z,0.80
2022-09-28T14:36:45.939Z,0.73
2022-09-28T14:39:52.108Z,1.13
2022-09-28T14:42:31.917Z,0.70
2022-09-28T14:45:16.400Z,0.50
2022-09-28T14:48:07.928Z,1.20
2022-09-28T14:50:39.939Z,1.20
2022-09-28T14:53:19.435Z,0.57
2022-09-28T14:55:53.544Z,1.00
2022-09-28T14:58:28.719Z,0.80
2022-09-28T15:01:15.226Z,0.70
2022-09-28T15:03:53.229Z,0.80
2022-09-28T15:09:46.411Z,0.90
2022-09-28T15:12:36.020Z,1.10
2022-09-28T15:15:23.661Z,0.60
2022-09-28T15:18:17.068Z,1.23
2022-09-28T15:20:56.761Z,1.10
2022-09-28T15:23:41.648Z,1.30
2022-09-28T15:26:38.091Z,0.97
2022-09-28T15:29:18.547Z,1.03
2022-09-28T15:31:58.584Z,0.90
2022-09-28T15:34:56.558Z,1.00
2022-09-28T15:37:40.909Z,1.53
2022-09-28T15:40:24.320Z,1.03
2022-09-28T15:42:58.959Z,1.23
2022-09-28T15:45:45.272Z,1.00
2022-09-28T15:48:34.515Z,1.40
2022-09-28T15:51:15.013Z,1.27
2022-09-28T15:54:08.028Z,1.40
2022-09-28T15:56:57.356Z,0.83
2022-09-28T16:00:02.199Z,1.30
2022-09-28T16:03:08.792Z,1.17
2022-09-28T16:06:10.675Z,1.57
2022-09-28T16:11:46.405Z,1.10
2022-09-28T16:14:27.469Z,3.37
2022-09-28T16:17:03.569Z,1.48
2022-09-28T16:19:40.024Z,1.70
2022-09-28T16:22:28.799Z,1.70
2022-09-28T16:25:03.871Z,2.40
2022-09-28T16:27:45.124Z,2.40
2022-09-28T16:30:34.202Z,5.55
2022-09-28T16:33:10.683Z,3.40
2022-09-28T16:35:44.911Z,4.43
2022-09-28T16:38:19.317Z,4.60
2022-09-28T16:40:57.606Z,4.77
2022-09-28T16:43:38.387Z,4.33
2022-09-28T16:46:13.275Z,4.10
2022-09-28T16:49:01.526Z,4.60
2022-09-28T16:51:31.318Z,3.47
2022-09-28T16:54:42.285Z,2.80
2022-09-28T16:57:16.263Z,3.23
2022-09-28T16:59:46.841Z,1.67
2022-09-28T17:05:23.295Z,1.10
2022-09-28T17:08:07.377Z,1.97
2022-09-28T17:11:02.644Z,4.53
2022-09-28T17:13:37.792Z,2.80
2022-09-28T17:19:35.943Z,1.83
2022-09-28T17:22:14.215Z,1.40
2022-09-28T17:24:46.821Z,1.80
2022-09-28T17:27:27.460Z,1.40
2022-09-28T17:29:58.279Z,1.30
2022-09-28T17:32:33.194Z,1.30
2022-09-28T17:35:23.102Z,1.70
2022-09-28T17:37:53.800Z,1.58
2022-09-28T17:40:37.278Z,1.53
2022-09-28T17:43:07.009Z,1.40
2022-09-28T17:45:52.142Z,1.47
2022-09-28T17:48:30.773Z,1.80
2022-09-28T17:51:07.263Z,1.87
2022-09-28T17:53:38.995Z,1.27
2022-09-28T17:56:13.159Z,3.00
2022-09-28T17:58:44.032Z,1.60
2022-09-28T18:01:30.081Z,2.00
2022-09-28T18:04:05.848Z,1.63
2022-09-28T18:06:46.037Z,1.43
2022-09-28T18:09:30.594Z,2.13
2022-09-28T18:12:05.067Z,1.57
2022-09-28T18:14:36.005Z,1.53
2022-09-28T18:17:07.156Z,2.00
2022-09-28T18:19:43.108Z,2.13
2022-09-28T18:22:16.377Z,2.50
2022-09-28T18:24:48.470Z,2.53
2022-09-28T18:27:19.113Z,2.22
2022-09-28T18:29:49.328Z,2.07
2022-09-28T18:32:27.999Z,1.73
2022-09-28T18:37:51.238Z,1.23
2022-09-28T18:40:22.963Z,2.30
2022-09-28T18:45:33.850Z,2.30
2022-09-28T18:48:07.825Z,1.87
2022-09-28T18:50:37.057Z,2.63
2022-09-28T18:53:14.910Z,2.37
2022-09-28T18:55:47.389Z,2.30
2022-09-28T18:58:21.433Z,2.53
2022-09-28T19:01:25.240Z,2.57
2022-09-28T19:03:50.316Z,2.23
2022-09-28T19:06:37.336Z,3.17
2022-09-28T19:09:08.402Z,1.93
2022-09-28T19:11:41.730Z,1.40
2022-09-28T19:14:21.759Z,1.73
2022-09-28T19:17:02.522Z,1.90
2022-09-28T19:19:40.292Z,2.30
2022-09-28T19:22:12.941Z,1.50
2022-09-28T19:24:44.050Z,1.60
2022-09-28T19:27:15.480Z,2.03
2022-09-28T19:29:49.769Z,1.60
2022-09-28T19:32:20.609Z,1.60
2022-09-28T19:34:53.392Z,1.55
2022-09-28T19:40:12.129Z,1.40
2022-09-28T19:42:43.156Z,1.30
2022-09-28T19:45:13.795Z,1.73
2022-09-28T19:47:49.702Z,1.40
2022-09-28T19:50:28.058Z,1.83
2022-09-28T19:53:02.082Z,2.73
2022-09-28T19:55:37.798Z,2.67
2022-09-28T19:58:07.040Z,2.23
2022-09-28T20:00:45.614Z,2.30
2022-09-28T20:03:21.061Z,1.97
2022-09-28T20:06:01.339Z,2.93
2022-09-28T20:08:32.101Z,2.57
2022-09-28T20:11:06.477Z,2.10
2022-09-28T20:14:01.889Z,2.73
2022-09-28T20:16:44.475Z,2.77
2022-09-28T20:19:21.255Z,1.80
2022-09-28T20:22:01.410Z,1.83
2022-09-28T20:24:38.384Z,1.53
2022-09-28T20:27:11.762Z,1.20
2022-09-28T20:29:48.384Z,2.30
2022-09-28T20:32:18.976Z,1.60
2022-09-28T20:35:04.288Z,1.20
2022-09-28T20:37:36.866Z,0.83
2022-09-28T20:40:14.148Z,0.90
2022-09-28T20:42:45.679Z,0.70
2022-09-28T20:45:14.871Z,0.68
2022-09-28T20:47:45.893Z,0.57
2022-09-28T20:50:17.561Z,0.40
2022-09-28T20:52:48.451Z,0.90
2022-09-28T20:55:21.096Z,1.87
2022-09-28T20:57:50.645Z,1.07
2022-09-28T21:00:20.924Z,1.20
2022-09-28T21:03:00.952Z,1.10
2022-09-28T21:05:40.021Z,1.17
2022-09-28T21:08:14.555Z,1.17
2022-09-28T21:10:57.716Z,0.93
2022-09-28T21:13:29.743Z,0.80
2022-09-28T21:16:03.293Z,0.20
2022-09-28T21:18:35.159Z,0.27
2022-09-28T21:21:16.685Z,0.50
2022-09-28T21:23:49.171Z,0.90
2022-09-28T21:26:35.132Z,1.20
2022-09-28T21:29:13.485Z,1.00
2022-09-28T21:31:58.217Z,5.27
2022-09-28T21:34:43.125Z,1.83
2022-09-28T21:37:13.433Z,1.23
2022-09-28T21:39:47.099Z,1.70
2022-09-28T21:42:26.883Z,2.37
2022-09-28T21:45:01.283Z,2.03
2022-09-28T21:47:31.922Z,2.00
2022-09-28T21:50:05.365Z,1.80
2022-09-28T21:52:36.190Z,1.97
2022-09-28T21:55:08.605Z,1.83
2022-09-28T21:57:40.892Z,1.97
2022-09-28T22:00:14.463Z,2.67
2022-09-28T22:02:45.066Z,1.83
2022-09-28T22:05:30.490Z,1.20
2022-09-28T22:08:01.226Z,2.20
2022-09-28T22:10:34.371Z,2.00
2022-09-28T22:13:05.302Z,2.00
2022-09-28T22:15:33.511Z,1.70
2022-09-28T22:18:07.712Z,1.67
2022-09-28T22:20:52.809Z,2.07
2022-09-28T22:23:27.080Z,1.90
2022-09-28T22:26:15.250Z,1.80
2022-09-28T22:28:53.372Z,1.83
2022-09-28T22:31:36.445Z,2.10
2022-09-28T22:34:17.901Z,2.00
2022-09-28T22:37:00.004Z,1.70
2022-09-28T22:39:37.669Z,1.60
2022-09-28T22:42:10.460Z,1.60
2022-09-28T22:44:39.059Z,2.10
2022-09-28T22:47:12.793Z,1.50
2022-09-28T22:49:43.278Z,1.30
2022-09-28T22:52:15.039Z,1.63
2022-09-28T22:54:52.974Z,2.60
2022-09-28T22:57:25.216Z,1.63
2022-09-28T23:00:03.658Z,1.50
2022-09-28T23:02:43.943Z,1.60
2022-09-28T23:05:17.368Z,1.63
2022-09-28T23:07:56.663Z,1.50
2022-09-28T23:10:27.521Z,2.07
2022-09-28T23:13:03.228Z,1.77
2022-09-28T23:15:42.109Z,1.97
2022-09-28T23:18:13.643Z,2.10
2022-09-28T23:20:46.537Z,1.63
2022-09-28T23:23:18.952Z,2.00
2022-09-28T23:26:03.377Z,2.13
2022-09-28T23:28:33.684Z,1.73
2022-09-28T23:31:19.090Z,2.07
2022-09-28T23:33:55.938Z,2.13
2022-09-28T23:36:26.284Z,2.23
2022-09-28T23:39:07.136Z,2.47
2022-09-28T23:41:41.230Z,1.80
2022-09-28T23:44:12.317Z,2.53
2022-09-28T23:46:46.231Z,1.63
2022-09-28T23:49:17.475Z,1.57
2022-09-28T23:51:55.175Z,1.52
2022-09-28T23:54:35.038Z,1.50
2022-09-28T23:57:08.055Z,1.33
2022-09-28T23:59:41.230Z,1.60
